createdAt,value
2018-05-21T00:00:04.034Z,4.68
2018-05-21T00:01:10.260Z,6.57
2018-05-21T00:02:16.775Z,4.82
2018-05-21T00:03:23.098Z,5.37
2018-05-21T00:04:29.403Z,7.20
2018-05-21T00:05:36.397Z,5.82
2018-05-21T00:06:42.553Z,5.53
2018-05-21T00:07:50.703Z,8.45
2018-05-21T00:08:57.775Z,6.40
2018-05-21T00:10:04.581Z,5.70
2018-05-21T00:11:13.505Z,5.40
2018-05-21T00:12:19.726Z,4.43
2018-05-21T00:13:27.779Z,5.05
2018-05-21T00:14:35.878Z,5.93
2018-05-21T00:15:44.828Z,5.53
2018-05-21T00:16:52.909Z,5.45
2018-05-21T00:18:00.434Z,4.37
2018-05-21T00:19:07.393Z,4.43
2018-05-21T00:20:14.018Z,4.70
2018-05-21T00:21:20.590Z,4.50
2018-05-21T00:22:26.867Z,7.35
2018-05-21T00:23:33.089Z,5.82
2018-05-21T00:24:39.396Z,5.43
2018-05-21T00:25:45.706Z,4.30
2018-05-21T00:26:57.002Z,4.90
2018-05-21T00:28:03.226Z,5.18
2018-05-21T00:29:10.179Z,5.10
2018-05-21T00:30:31.293Z,5.50
2018-05-21T00:31:37.473Z,4.40
2018-05-21T00:32:43.744Z,3.60
2018-05-21T00:33:50.071Z,4.30
2018-05-21T00:34:56.381Z,5.15
2018-05-21T00:36:02.633Z,5.85
2018-05-21T00:37:08.552Z,6.00
2018-05-21T00:38:17.493Z,3.95
2018-05-21T00:39:23.980Z,4.65
2018-05-21T00:40:30.274Z,4.78
2018-05-21T00:41:36.601Z,5.20
2018-05-21T00:42:42.906Z,4.40
2018-05-21T00:43:50.631Z,5.25
2018-05-21T00:44:56.843Z,6.62
2018-05-21T00:46:03.147Z,4.93
2018-05-21T00:47:09.369Z,4.43
2018-05-21T00:48:15.665Z,6.25
2018-05-21T00:49:21.876Z,4.00
2018-05-21T00:50:28.120Z,5.10
2018-05-21T00:51:40.296Z,5.12
2018-05-21T00:52:46.472Z,4.30
2018-05-21T00:53:52.786Z,5.87
2018-05-21T00:55:10.289Z,4.70
2018-05-21T00:56:16.237Z,4.57
2018-05-21T00:57:22.477Z,4.50
2018-05-21T00:58:28.774Z,4.00
2018-05-21T00:59:35.067Z,5.03
2018-05-21T01:00:41.104Z,4.53
2018-05-21T01:01:46.262Z,4.43
2018-05-21T01:02:52.594Z,4.15
2018-05-21T01:03:58.896Z,4.78
2018-05-21T01:05:05.125Z,4.50
2018-05-21T01:06:11.406Z,4.37
2018-05-21T01:07:17.642Z,5.53
2018-05-21T01:08:23.928Z,4.68
2018-05-21T01:09:30.287Z,3.70
2018-05-21T01:10:36.599Z,4.12
2018-05-21T01:11:42.875Z,4.57
2018-05-21T01:12:49.177Z,6.10
2018-05-21T01:13:55.373Z,4.15
2018-05-21T01:15:12.109Z,5.75
2018-05-21T01:16:18.042Z,4.53
2018-05-21T01:17:24.351Z,4.32
2018-05-21T01:18:30.406Z,4.37
2018-05-21T01:19:36.302Z,3.90
2018-05-21T01:20:42.606Z,5.20
2018-05-21T01:21:48.877Z,4.30
2018-05-21T01:22:55.103Z,4.80
2018-05-21T01:24:01.445Z,6.57
2018-05-21T01:25:07.740Z,5.18
2018-05-21T01:26:14.130Z,4.43
2018-05-21T01:27:20.425Z,5.50
2018-05-21T01:28:26.637Z,5.20
2018-05-21T01:29:32.877Z,4.75
2018-05-21T01:30:39.213Z,4.85
2018-05-21T01:31:45.478Z,5.40
2018-05-21T01:32:51.719Z,4.65
2018-05-21T01:33:58.027Z,7.57
2018-05-21T01:35:03.942Z,4.90
2018-05-21T01:36:11.135Z,4.75
2018-05-21T01:37:17.198Z,5.03
2018-05-21T01:38:23.451Z,5.18
2018-05-21T01:39:29.689Z,4.35
2018-05-21T01:40:35.981Z,5.55
2018-05-21T01:41:42.496Z,4.95
2018-05-21T01:42:48.828Z,5.68
2018-05-21T01:43:55.125Z,4.87
2018-05-21T01:45:01.433Z,5.10
2018-05-21T01:46:08.579Z,5.47
2018-05-21T01:47:14.766Z,4.57
2018-05-21T01:48:20.956Z,4.78
2018-05-21T01:49:27.194Z,4.97
2018-05-21T01:50:33.554Z,4.43
2018-05-21T01:51:39.814Z,4.18
2018-05-21T01:52:46.109Z,5.25
2018-05-21T01:53:52.357Z,5.30
2018-05-21T01:55:04.898Z,5.05
2018-05-21T01:56:11.691Z,4.95
2018-05-21T01:57:17.908Z,5.00
2018-05-21T01:58:24.124Z,4.75
2018-05-21T01:59:30.114Z,5.10
2018-05-21T02:00:36.424Z,4.57
2018-05-21T02:01:43.663Z,7.22
2018-05-21T02:02:49.599Z,4.57
2018-05-21T02:03:55.930Z,5.70
2018-05-21T02:05:02.207Z,4.78
2018-05-21T02:06:08.542Z,5.68
2018-05-21T02:07:14.819Z,4.87
2018-05-21T02:08:21.387Z,5.37
2018-05-21T02:09:27.896Z,4.78
2018-05-21T02:10:34.196Z,5.62
2018-05-21T02:11:40.491Z,4.95
2018-05-21T02:12:47.673Z,4.90
2018-05-21T02:13:53.561Z,4.55
2018-05-21T02:14:59.589Z,5.78
2018-05-21T02:16:05.966Z,5.20
2018-05-21T02:17:13.026Z,5.53
2018-05-21T02:18:19.808Z,4.25
2018-05-21T02:19:26.118Z,6.07
2018-05-21T02:20:32.402Z,4.62
2018-05-21T02:21:38.350Z,4.90
2018-05-21T02:22:44.612Z,4.80
2018-05-21T02:23:50.981Z,4.22
2018-05-21T02:24:57.248Z,5.80
2018-05-21T02:26:03.460Z,4.85
2018-05-21T02:27:09.804Z,4.30
2018-05-21T02:28:16.094Z,5.80
2018-05-21T02:29:22.321Z,4.40
2018-05-21T02:30:28.625Z,5.03
2018-05-21T02:31:34.973Z,4.85
2018-05-21T02:32:41.261Z,4.60
2018-05-21T02:33:47.667Z,4.78
2018-05-21T02:34:53.997Z,4.62
2018-05-21T02:36:00.268Z,4.95
2018-05-21T02:37:14.131Z,4.85
2018-05-21T02:38:21.065Z,4.80
2018-05-21T02:39:27.308Z,5.75
2018-05-21T02:40:33.618Z,4.87
2018-05-21T02:41:39.936Z,5.20
2018-05-21T02:42:46.247Z,6.47
2018-05-21T02:43:52.540Z,6.15
2018-05-21T02:44:58.744Z,5.65
2018-05-21T02:46:04.720Z,5.07
2018-05-21T02:47:10.964Z,4.57
2018-05-21T02:48:17.420Z,6.50
2018-05-21T02:49:24.858Z,6.85
2018-05-21T02:50:31.129Z,4.60
2018-05-21T02:51:37.369Z,5.85
2018-05-21T02:52:43.829Z,5.12
2018-05-21T02:53:50.041Z,5.20
2018-05-21T02:54:57.206Z,6.12
2018-05-21T02:56:03.744Z,5.15
2018-05-21T02:57:10.720Z,5.97
2018-05-21T02:58:16.944Z,5.72
2018-05-21T02:59:23.284Z,5.25
2018-05-21T03:00:29.263Z,4.35
2018-05-21T03:01:35.713Z,6.43
2018-05-21T03:02:42.857Z,5.78
2018-05-21T03:03:49.258Z,4.55
2018-05-21T03:04:55.558Z,5.57
2018-05-21T03:06:02.082Z,5.72
2018-05-21T03:07:08.949Z,5.82
2018-05-21T03:08:15.376Z,5.70
2018-05-21T03:09:22.342Z,7.15
2018-05-21T03:10:28.813Z,7.10
2018-05-21T03:11:35.086Z,5.82
2018-05-21T03:12:42.357Z,6.50
2018-05-21T03:13:49.174Z,6.03
2018-05-21T03:14:55.408Z,6.40
2018-05-21T03:16:01.652Z,5.95
2018-05-21T03:17:07.943Z,6.32
2018-05-21T03:18:14.230Z,5.72
2018-05-21T03:19:21.306Z,5.50
2018-05-21T03:20:28.507Z,5.82
2018-05-21T03:21:34.803Z,5.35
2018-05-21T03:22:41.057Z,6.12
2018-05-21T03:23:47.424Z,6.60
2018-05-21T03:24:54.185Z,5.60
2018-05-21T03:26:00.465Z,5.00
2018-05-21T03:27:06.707Z,6.37
2018-05-21T03:28:13.014Z,6.53
2018-05-21T03:29:20.218Z,5.97
2018-05-21T03:30:26.424Z,6.12
2018-05-21T03:31:32.641Z,5.35
2018-05-21T03:32:38.889Z,6.62
2018-05-21T03:33:45.492Z,7.95
2018-05-21T03:34:51.901Z,6.65
2018-05-21T03:35:58.006Z,8.73
2018-05-21T03:37:04.327Z,5.97
2018-05-21T03:38:10.616Z,6.05
2018-05-21T03:39:17.976Z,6.75
2018-05-21T03:40:25.036Z,6.30
2018-05-21T03:41:30.952Z,5.95
2018-05-21T03:42:37.224Z,5.50
2018-05-21T03:43:44.040Z,5.78
2018-05-21T03:44:50.319Z,5.90
2018-05-21T03:45:56.542Z,5.93
2018-05-21T03:47:02.726Z,7.10
2018-05-21T03:48:09.016Z,6.40
2018-05-21T03:49:15.257Z,5.78
2018-05-21T03:50:21.466Z,5.12
2018-05-21T03:51:28.724Z,7.40
2018-05-21T03:52:35.066Z,7.80
2018-05-21T03:53:41.518Z,5.53
2018-05-21T03:54:47.753Z,6.28
2018-05-21T03:55:54.930Z,6.22
2018-05-21T03:57:01.560Z,7.50
2018-05-21T03:58:19.181Z,7.65
2018-05-21T03:59:36.149Z,5.55
2018-05-21T04:02:33.565Z,5.90
2018-05-21T04:03:50.886Z,5.90
2018-05-21T04:04:57.171Z,6.40
2018-05-21T04:06:03.457Z,5.45
2018-05-21T04:07:09.781Z,8.18
2018-05-21T04:08:16.114Z,6.10
2018-05-21T04:09:22.416Z,7.00
2018-05-21T04:10:28.743Z,6.28
2018-05-21T04:11:35.470Z,4.95
2018-05-21T04:12:41.700Z,6.12
2018-05-21T04:13:47.650Z,4.75
2018-05-21T04:14:53.991Z,5.43
2018-05-21T04:16:00.245Z,4.75
2018-05-21T04:17:05.853Z,5.93
2018-05-21T04:18:12.633Z,5.07
2018-05-21T04:19:18.908Z,5.10
2018-05-21T04:20:25.204Z,5.90
2018-05-21T04:21:31.773Z,5.47
2018-05-21T04:22:38.066Z,5.30
2018-05-21T04:23:44.483Z,5.62
2018-05-21T04:24:50.787Z,8.00
2018-05-21T04:25:57.112Z,4.45
2018-05-21T04:27:04.280Z,5.82
2018-05-21T04:28:11.280Z,6.25
2018-05-21T04:29:17.544Z,5.82
2018-05-21T04:30:23.863Z,6.47
2018-05-21T04:31:30.157Z,5.75
2018-05-21T04:32:36.421Z,5.93
2018-05-21T04:33:42.404Z,7.05
2018-05-21T04:34:49.223Z,6.50
2018-05-21T04:35:55.548Z,5.18
2018-05-21T04:37:01.868Z,5.32
2018-05-21T04:38:08.342Z,5.70
2018-05-21T04:39:14.662Z,5.80
2018-05-21T04:40:21.005Z,5.43
2018-05-21T04:41:27.304Z,5.45
2018-05-21T04:42:33.859Z,6.90
2018-05-21T04:43:40.071Z,5.30
2018-05-21T04:44:46.349Z,5.15
2018-05-21T04:45:52.737Z,5.10
2018-05-21T04:46:59.021Z,7.32
2018-05-21T04:48:05.464Z,5.50
2018-05-21T04:49:11.802Z,5.00
2018-05-21T04:50:18.245Z,5.35
2018-05-21T04:51:24.624Z,5.28
2018-05-21T04:52:30.913Z,5.20
2018-05-21T04:53:37.152Z,5.05
2018-05-21T04:54:43.474Z,5.20
2018-05-21T04:55:49.737Z,5.55
2018-05-21T04:56:56.049Z,4.93
2018-05-21T04:58:02.311Z,4.50
2018-05-21T04:59:08.573Z,5.32
2018-05-21T05:00:14.778Z,7.60
2018-05-21T05:01:21.033Z,4.82
2018-05-21T05:02:27.310Z,6.28
2018-05-21T05:03:34.577Z,5.40
2018-05-21T05:04:40.784Z,6.28
2018-05-21T05:05:47.106Z,5.50
2018-05-21T05:06:54.060Z,5.30
2018-05-21T05:08:06.030Z,4.87
2018-05-21T05:09:13.156Z,5.15
2018-05-21T05:10:20.254Z,7.30
2018-05-21T05:11:28.192Z,3.75
2018-05-21T05:12:35.479Z,6.55
2018-05-21T05:13:42.451Z,5.00
2018-05-21T05:14:49.796Z,4.40
2018-05-21T05:15:56.682Z,4.85
2018-05-21T05:17:04.906Z,7.70
2018-05-21T05:18:12.264Z,5.45
2018-05-21T05:19:19.441Z,6.20
2018-05-21T05:20:26.798Z,6.40
2018-05-21T05:21:34.623Z,4.95
2018-05-21T05:22:41.859Z,7.40
2018-05-21T05:23:49.129Z,5.00
2018-05-21T05:24:59.901Z,5.87
2018-05-21T05:26:07.241Z,5.50
2018-05-21T05:27:14.306Z,4.60
2018-05-21T05:28:20.885Z,5.25
2018-05-21T05:29:28.037Z,4.82
2018-05-21T05:30:36.070Z,7.45
2018-05-21T05:31:44.522Z,4.40
2018-05-21T05:32:51.577Z,6.87
2018-05-21T05:33:59.823Z,6.18
2018-05-21T05:35:12.995Z,4.93
2018-05-21T05:36:19.912Z,4.55
2018-05-21T05:37:27.562Z,4.40
2018-05-21T05:38:34.379Z,5.57
2018-05-21T05:39:42.152Z,5.70
2018-05-21T05:40:49.373Z,5.50
2018-05-21T05:41:55.946Z,5.75
2018-05-21T05:43:02.688Z,5.15
2018-05-21T05:44:10.440Z,5.90
2018-05-21T05:45:17.366Z,5.55
2018-05-21T05:46:24.897Z,5.60
2018-05-21T05:47:31.961Z,5.32
2018-05-21T05:48:38.576Z,4.85
2018-05-21T05:49:45.309Z,5.35
2018-05-21T05:50:52.557Z,4.68
2018-05-21T05:52:00.087Z,4.47
2018-05-21T05:53:07.480Z,6.75
2018-05-21T05:54:14.260Z,5.05
2018-05-21T05:55:22.234Z,4.93
2018-05-21T05:56:29.828Z,4.37
2018-05-21T05:57:36.414Z,4.70
2018-05-21T05:58:43.979Z,4.50
2018-05-21T05:59:51.042Z,5.57
2018-05-21T06:00:57.911Z,5.45
2018-05-21T06:02:04.630Z,4.93
2018-05-21T06:03:10.764Z,5.15
2018-05-21T06:04:17.559Z,6.30
2018-05-21T06:05:24.281Z,5.62
2018-05-21T06:06:31.957Z,5.00
2018-05-21T06:07:41.522Z,6.70
2018-05-21T06:08:48.640Z,5.10
2018-05-21T06:09:54.875Z,5.57
2018-05-21T06:11:02.154Z,4.85
2018-05-21T06:12:09.753Z,6.12
2018-05-21T06:13:17.065Z,6.95
2018-05-21T06:14:24.103Z,5.10
2018-05-21T06:15:30.405Z,6.05
2018-05-21T06:16:36.666Z,4.85
2018-05-21T06:17:42.973Z,4.95
2018-05-21T06:18:49.393Z,6.70
2018-05-21T06:19:55.623Z,8.15
2018-05-21T06:21:01.890Z,5.05
2018-05-21T06:22:08.088Z,5.40
2018-05-21T06:23:13.980Z,4.47
2018-05-21T06:24:20.672Z,4.25
2018-05-21T06:25:27.760Z,5.45
2018-05-21T06:26:36.362Z,4.60
2018-05-21T06:27:44.363Z,4.82
2018-05-21T06:28:50.709Z,5.12
2018-05-21T06:29:57.189Z,6.18
2018-05-21T06:31:03.884Z,4.07
2018-05-21T06:32:10.814Z,5.00
2018-05-21T06:33:17.380Z,5.28
2018-05-21T06:34:23.955Z,6.95
2018-05-21T06:35:30.672Z,6.15
2018-05-21T06:36:37.229Z,5.40
2018-05-21T06:37:43.574Z,5.18
2018-05-21T06:38:51.025Z,5.18
2018-05-21T06:39:57.843Z,4.60
2018-05-21T06:41:04.348Z,5.07
2018-05-21T06:42:11.169Z,5.15
2018-05-21T06:43:18.229Z,6.18
2018-05-21T06:44:25.211Z,5.68
2018-05-21T06:45:31.409Z,4.18
2018-05-21T06:46:37.982Z,4.60
2018-05-21T06:47:44.659Z,4.20
2018-05-21T06:48:50.997Z,5.53
2018-05-21T06:49:58.320Z,6.22
2018-05-21T06:51:05.916Z,4.07
2018-05-21T06:52:13.331Z,4.15
2018-05-21T06:53:20.308Z,5.80
2018-05-21T06:54:26.771Z,5.03
2018-05-21T06:55:33.363Z,5.15
2018-05-21T06:56:40.095Z,5.10
2018-05-21T06:57:46.529Z,5.15
2018-05-21T06:58:54.140Z,4.45
2018-05-21T07:00:00.486Z,6.07
2018-05-21T07:01:07.587Z,5.12
2018-05-21T07:02:13.925Z,5.50
2018-05-21T07:03:20.983Z,4.57
2018-05-21T07:04:27.281Z,5.32
2018-05-21T07:05:33.604Z,5.65
2018-05-21T07:06:40.156Z,4.68
2018-05-21T07:07:46.454Z,4.75
2018-05-21T07:08:52.811Z,3.95
2018-05-21T07:09:59.060Z,5.20
2018-05-21T07:11:11.473Z,5.50
2018-05-21T07:12:17.683Z,4.87
2018-05-21T07:13:24.981Z,4.47
2018-05-21T07:14:31.808Z,4.53
2018-05-21T07:15:38.159Z,5.90
2018-05-21T07:16:44.415Z,4.07
2018-05-21T07:17:50.660Z,4.53
2018-05-21T07:18:56.932Z,4.32
2018-05-21T07:20:03.194Z,4.62
2018-05-21T07:21:10.577Z,5.15
2018-05-21T07:22:17.008Z,4.70
2018-05-21T07:23:23.020Z,4.18
2018-05-21T07:24:29.399Z,5.05
2018-05-21T07:25:35.966Z,7.35
2018-05-21T07:26:42.244Z,4.82
2018-05-21T07:27:48.449Z,4.90
2018-05-21T07:28:55.791Z,4.85
2018-05-21T07:30:02.845Z,4.70
2018-05-21T07:31:09.136Z,5.78
2018-05-21T07:32:17.857Z,4.50
2018-05-21T07:33:28.958Z,4.90
2018-05-21T07:34:35.306Z,4.82
2018-05-21T07:35:41.576Z,5.47
2018-05-21T07:36:47.868Z,3.90
2018-05-21T07:37:54.096Z,4.10
2018-05-21T07:39:00.382Z,4.78
2018-05-21T07:40:06.842Z,4.85
2018-05-21T07:41:13.133Z,5.53
2018-05-21T07:42:19.451Z,4.70
2018-05-21T07:43:25.753Z,5.53
2018-05-21T07:44:33.114Z,4.30
2018-05-21T07:45:40.054Z,5.87
2018-05-21T07:46:46.309Z,5.32
2018-05-21T07:47:52.613Z,4.40
2018-05-21T07:48:58.877Z,4.62
2018-05-21T07:50:04.902Z,4.25
2018-05-21T07:51:11.143Z,3.92
2018-05-21T07:52:17.457Z,4.18
2018-05-21T07:53:26.688Z,4.28
2018-05-21T07:54:32.876Z,3.58
2018-05-21T07:55:39.237Z,4.80
2018-05-21T07:56:45.492Z,3.83
2018-05-21T07:57:51.765Z,3.92
2018-05-21T07:58:58.276Z,5.28
2018-05-21T08:00:04.300Z,4.50
2018-05-21T08:01:10.545Z,4.60
2018-05-21T08:02:17.366Z,3.90
2018-05-21T08:03:23.654Z,3.90
2018-05-21T08:04:29.951Z,3.83
2018-05-21T08:05:36.248Z,5.30
2018-05-21T08:06:42.627Z,3.80
2018-05-21T08:07:48.899Z,4.10
2018-05-21T08:08:55.102Z,3.70
2018-05-21T08:10:01.321Z,4.28
2018-05-21T08:11:07.627Z,3.15
2018-05-21T08:12:13.925Z,5.05
2018-05-21T08:13:20.363Z,4.10
2018-05-21T08:14:26.617Z,3.90
2018-05-21T08:15:32.805Z,5.70
2018-05-21T08:16:39.124Z,4.03
2018-05-21T08:17:45.397Z,4.87
2018-05-21T08:18:51.598Z,5.20
2018-05-21T08:19:57.816Z,2.97
2018-05-21T08:21:03.825Z,3.67
2018-05-21T08:22:10.132Z,3.33
2018-05-21T08:23:16.442Z,4.65
2018-05-21T08:24:23.379Z,4.97
2018-05-21T08:25:29.254Z,3.33
2018-05-21T08:26:35.513Z,3.42
2018-05-21T08:27:41.782Z,4.43
2018-05-21T08:28:48.098Z,3.53
2018-05-21T08:29:54.289Z,3.87
2018-05-21T08:31:00.305Z,3.45
2018-05-21T08:32:06.599Z,4.05
2018-05-21T08:33:12.932Z,4.82
2018-05-21T08:34:19.433Z,4.87
2018-05-21T08:35:27.202Z,3.90
2018-05-21T08:36:34.269Z,4.15
2018-05-21T08:37:41.148Z,3.72
2018-05-21T08:38:47.370Z,2.90
2018-05-21T08:39:53.675Z,3.42
2018-05-21T08:40:59.939Z,4.90
2018-05-21T08:42:06.205Z,3.30
2018-05-21T08:43:12.590Z,2.87
2018-05-21T08:44:18.970Z,2.67
2018-05-21T08:45:25.277Z,3.15
2018-05-21T08:46:31.577Z,3.25
2018-05-21T08:47:38.230Z,3.55
2018-05-21T08:48:45.785Z,3.55
2018-05-21T08:49:52.222Z,3.05
2018-05-21T08:50:59.512Z,2.90
2018-05-21T08:52:06.743Z,2.58
2018-05-21T08:53:13.537Z,2.85
2018-05-21T08:54:20.206Z,4.60
2018-05-21T08:55:26.098Z,4.00
2018-05-21T08:56:37.733Z,3.78
2018-05-21T08:57:49.312Z,3.15
2018-05-21T08:58:56.243Z,2.62
2018-05-21T09:00:02.586Z,3.05
2018-05-21T09:01:09.112Z,2.45
2018-05-21T09:02:15.309Z,2.87
2018-05-21T09:03:21.976Z,3.80
2018-05-21T09:04:28.220Z,3.03
2018-05-21T09:05:34.669Z,2.90
2018-05-21T09:06:42.510Z,3.47
2018-05-21T09:07:48.801Z,3.62
2018-05-21T09:08:55.077Z,3.67
2018-05-21T09:10:01.388Z,3.30
2018-05-21T09:11:08.552Z,4.40
2018-05-21T09:12:14.486Z,2.58
2018-05-21T09:13:20.836Z,2.60
2018-05-21T09:14:27.085Z,2.45
2018-05-21T09:15:33.385Z,5.12
2018-05-21T09:16:39.748Z,2.50
2018-05-21T09:17:46.325Z,2.70
2018-05-21T09:18:52.608Z,2.50
2018-05-21T09:19:58.915Z,3.37
2018-05-21T09:21:05.168Z,2.50
2018-05-21T09:22:13.683Z,3.28
2018-05-21T09:23:20.608Z,2.90
2018-05-21T09:24:26.819Z,3.28
2018-05-21T09:25:33.021Z,2.72
2018-05-21T09:26:39.296Z,2.53
2018-05-21T09:27:45.540Z,2.55
2018-05-21T09:28:51.751Z,3.55
2018-05-21T09:29:58.061Z,5.60
2018-05-21T09:31:04.346Z,3.28
2018-05-21T09:32:10.872Z,3.53
2018-05-21T09:33:18.225Z,3.00
2018-05-21T09:34:24.585Z,3.72
2018-05-21T09:35:30.905Z,2.85
2018-05-21T09:36:37.209Z,2.87
2018-05-21T09:37:44.350Z,2.42
2018-05-21T09:38:54.640Z,2.62
2018-05-21T09:40:01.096Z,2.55
2018-05-21T09:41:07.466Z,3.25
2018-05-21T09:42:13.813Z,3.90
2018-05-21T09:43:20.684Z,3.45
2018-05-21T09:44:27.026Z,2.45
2018-05-21T09:45:33.129Z,2.50
2018-05-21T09:46:39.449Z,2.47
2018-05-21T09:47:45.725Z,2.30
2018-05-21T09:48:52.036Z,2.50
2018-05-21T09:49:58.039Z,3.85
2018-05-21T09:51:04.365Z,2.50
2018-05-21T09:52:10.706Z,3.72
2018-05-21T09:53:17.032Z,3.03
2018-05-21T09:54:23.641Z,2.33
2018-05-21T09:55:30.733Z,5.93
2018-05-21T09:56:37.446Z,2.22
2018-05-21T09:57:43.681Z,3.75
2018-05-21T09:58:51.244Z,3.35
2018-05-21T10:00:04.574Z,2.53
2018-05-21T10:01:12.781Z,1.92
2018-05-21T10:02:20.356Z,3.00
2018-05-21T10:03:27.213Z,3.37
2018-05-21T10:04:34.125Z,2.60
2018-05-21T10:05:40.488Z,2.80
2018-05-21T10:06:46.766Z,2.60
2018-05-21T10:07:53.073Z,3.10
2018-05-21T10:08:59.396Z,2.90
2018-05-21T10:10:05.576Z,4.35
2018-05-21T10:11:11.928Z,4.22
2018-05-21T10:12:18.229Z,3.00
2018-05-21T10:13:24.562Z,3.15
2018-05-21T10:14:30.860Z,4.10
2018-05-21T10:15:38.421Z,2.55
2018-05-21T10:16:44.624Z,1.90
2018-05-21T10:17:50.938Z,4.43
2018-05-21T10:18:57.201Z,2.40
2018-05-21T10:20:03.512Z,2.30
2018-05-21T10:21:10.104Z,4.87
2018-05-21T10:22:16.646Z,2.67
2018-05-21T10:23:22.865Z,2.10
2018-05-21T10:24:29.171Z,2.40
2018-05-21T10:25:36.323Z,2.80
2018-05-21T10:26:43.076Z,2.75
2018-05-21T10:27:49.374Z,2.50
2018-05-21T10:28:55.672Z,2.37
2018-05-21T10:30:01.957Z,6.00
2018-05-21T10:31:08.246Z,2.42
2018-05-21T10:32:14.510Z,2.92
2018-05-21T10:33:20.778Z,2.58
2018-05-21T10:34:27.102Z,3.58
2018-05-21T10:35:33.431Z,2.50
2018-05-21T10:36:39.767Z,3.03
2018-05-21T10:37:46.069Z,4.87
2018-05-21T10:38:52.556Z,2.28
2018-05-21T10:39:58.857Z,6.25
2018-05-21T10:41:04.964Z,4.15
2018-05-21T10:42:12.138Z,3.30
2018-05-21T10:43:18.437Z,3.17
2018-05-21T10:44:25.645Z,2.85
2018-05-21T10:45:32.017Z,2.97
2018-05-21T10:46:38.545Z,2.30
2018-05-21T10:47:45.050Z,2.28
2018-05-21T10:48:51.309Z,5.18
2018-05-21T10:49:57.621Z,2.65
2018-05-21T10:51:03.935Z,3.35
2018-05-21T10:52:10.271Z,2.12
2018-05-21T10:53:16.604Z,2.75
2018-05-21T10:54:22.887Z,2.97
2018-05-21T10:55:29.467Z,4.30
2018-05-21T10:56:35.851Z,2.90
2018-05-21T10:57:44.655Z,3.28
2018-05-21T10:58:51.165Z,3.00
2018-05-21T10:59:57.398Z,1.73
2018-05-21T11:01:03.713Z,2.78
2018-05-21T11:02:10.130Z,2.65
2018-05-21T11:03:20.384Z,2.72
2018-05-21T11:04:26.637Z,2.40
2018-05-21T11:05:32.968Z,3.65
2018-05-21T11:06:40.076Z,2.78
2018-05-21T11:07:46.416Z,2.72
2018-05-21T11:08:52.802Z,2.53
2018-05-21T11:09:59.346Z,3.05
2018-05-21T11:11:05.679Z,2.20
2018-05-21T11:12:11.995Z,2.40
2018-05-21T11:13:18.477Z,2.97
2018-05-21T11:14:24.853Z,2.00
2018-05-21T11:15:31.830Z,2.17
2018-05-21T11:16:38.162Z,2.40
2018-05-21T11:17:47.022Z,2.00
2018-05-21T11:18:54.192Z,2.10
2018-05-21T11:20:00.708Z,2.22
2018-05-21T11:21:07.933Z,2.12
2018-05-21T11:22:14.165Z,4.20
2018-05-21T11:23:20.488Z,3.25
2018-05-21T11:24:26.697Z,3.30
2018-05-21T11:25:33.120Z,1.85
2018-05-21T11:26:39.490Z,2.15
2018-05-21T11:27:45.761Z,3.80
2018-05-21T11:28:52.186Z,2.55
2018-05-21T11:29:58.473Z,2.97
2018-05-21T11:31:04.778Z,1.98
2018-05-21T11:32:11.085Z,2.85
2018-05-21T11:33:17.137Z,3.33
2018-05-21T11:34:23.414Z,2.85
2018-05-21T11:35:29.710Z,3.35
2018-05-21T11:36:36.066Z,2.58
2018-05-21T11:37:42.333Z,2.83
2018-05-21T11:38:49.502Z,2.40
2018-05-21T11:39:56.305Z,2.97
2018-05-21T11:41:02.613Z,2.40
2018-05-21T11:42:08.750Z,3.80
2018-05-21T11:43:14.962Z,3.17
2018-05-21T11:45:41.704Z,2.35
2018-05-21T11:46:48.018Z,2.78
2018-05-21T11:47:54.288Z,2.80
2018-05-21T11:49:00.522Z,2.80
2018-05-21T11:50:06.551Z,3.50
2018-05-21T11:51:12.938Z,3.40
2018-05-21T11:52:19.264Z,4.75
2018-05-21T11:53:25.569Z,2.45
2018-05-21T11:54:32.413Z,2.78
2018-05-21T11:55:39.687Z,4.07
2018-05-21T11:56:45.971Z,2.45
2018-05-21T11:57:52.276Z,3.28
2018-05-21T11:58:58.585Z,2.00
2018-05-21T12:00:04.110Z,2.70
2018-05-21T12:01:10.395Z,2.20
2018-05-21T12:02:16.313Z,2.42
2018-05-21T12:03:22.766Z,2.22
2018-05-21T12:04:29.889Z,4.28
2018-05-21T12:05:37.926Z,2.80
2018-05-21T12:06:46.532Z,2.70
2018-05-21T12:07:52.825Z,2.85
2018-05-21T12:08:59.158Z,2.40
2018-05-21T12:10:05.138Z,2.40
2018-05-21T12:11:11.441Z,2.28
2018-05-21T12:12:17.799Z,2.83
2018-05-21T12:13:24.022Z,3.65
2018-05-21T12:14:30.299Z,2.45
2018-05-21T12:15:36.608Z,2.03
2018-05-21T12:16:44.706Z,3.22
2018-05-21T12:17:50.970Z,3.80
2018-05-21T12:18:57.297Z,2.35
2018-05-21T12:20:03.260Z,2.37
2018-05-21T12:21:09.500Z,3.08
2018-05-21T12:22:15.805Z,3.65
2018-05-21T12:23:22.641Z,1.87
2018-05-21T12:24:28.643Z,1.92
2018-05-21T12:25:35.109Z,2.30
2018-05-21T12:26:42.775Z,2.53
2018-05-21T12:27:51.472Z,2.70
2018-05-21T12:28:57.805Z,2.10
2018-05-21T12:30:03.905Z,3.17
2018-05-21T12:31:10.177Z,2.92
2018-05-21T12:32:16.441Z,2.87
2018-05-21T12:33:22.341Z,2.10
2018-05-21T12:34:29.335Z,2.00
2018-05-21T12:35:35.688Z,1.70
2018-05-21T12:36:41.986Z,2.75
2018-05-21T12:37:48.252Z,2.40
2018-05-21T12:38:54.612Z,3.90
2018-05-21T12:40:00.912Z,1.77
2018-05-21T12:41:07.328Z,2.40
2018-05-21T12:42:14.410Z,2.45
2018-05-21T12:43:20.636Z,2.30
2018-05-21T12:44:26.965Z,3.15
2018-05-21T12:45:33.449Z,2.22
2018-05-21T12:46:39.705Z,2.30
2018-05-21T12:47:48.216Z,2.25
2018-05-21T12:48:59.549Z,2.65
2018-05-21T12:50:05.769Z,2.28
2018-05-21T12:51:12.104Z,2.45
2018-05-21T12:52:18.294Z,2.72
2018-05-21T12:53:24.604Z,2.28
2018-05-21T12:54:30.933Z,3.00
2018-05-21T12:55:37.133Z,2.87
2018-05-21T12:56:43.329Z,2.83
2018-05-21T12:57:50.470Z,2.90
2018-05-21T12:58:56.927Z,2.75
2018-05-21T13:00:03.654Z,3.60
2018-05-21T13:01:10.013Z,5.43
2018-05-21T13:02:16.575Z,2.08
2018-05-21T13:03:22.828Z,2.67
2018-05-21T13:04:29.224Z,2.35
2018-05-21T13:05:35.556Z,2.90
2018-05-21T13:06:42.322Z,2.60
2018-05-21T13:07:49.109Z,2.90
2018-05-21T13:08:59.098Z,2.80
2018-05-21T13:10:08.042Z,2.00
2018-05-21T13:11:14.432Z,2.70
2018-05-21T13:12:20.749Z,2.60
2018-05-21T13:13:26.681Z,2.17
2018-05-21T13:14:33.060Z,2.40
2018-05-21T13:15:39.345Z,2.70
2018-05-21T13:16:45.692Z,4.32
2018-05-21T13:17:51.949Z,3.30
2018-05-21T13:18:58.747Z,4.78
2018-05-21T13:20:04.941Z,2.35
2018-05-21T13:21:11.753Z,3.05
2018-05-21T13:22:18.777Z,3.28
2018-05-21T13:23:25.618Z,4.50
2018-05-21T13:24:31.914Z,2.83
2018-05-21T13:25:38.289Z,4.18
2018-05-21T13:26:44.517Z,2.28
2018-05-21T13:27:50.552Z,2.45
2018-05-21T13:28:56.860Z,4.15
2018-05-21T13:30:07.824Z,2.58
2018-05-21T13:31:14.035Z,1.70
2018-05-21T13:32:20.269Z,2.20
2018-05-21T13:33:26.599Z,2.10
2018-05-21T13:34:33.317Z,2.37
2018-05-21T13:35:39.820Z,2.15
2018-05-21T13:36:46.160Z,2.17
2018-05-21T13:37:53.109Z,2.95
2018-05-21T13:38:59.925Z,2.12
2018-05-21T13:40:05.934Z,3.35
2018-05-21T13:41:11.885Z,2.70
2018-05-21T13:42:18.206Z,1.87
2018-05-21T13:43:24.229Z,2.17
2018-05-21T13:44:30.531Z,3.80
2018-05-21T13:45:36.833Z,2.58
2018-05-21T13:46:43.508Z,2.30
2018-05-21T13:47:49.766Z,2.00
2018-05-21T13:49:00.884Z,3.67
2018-05-21T13:50:07.221Z,2.25
2018-05-21T13:51:13.544Z,3.65
2018-05-21T13:52:20.655Z,2.60
2018-05-21T13:53:28.272Z,1.95
2018-05-21T13:54:35.084Z,2.42
2018-05-21T13:55:41.348Z,3.25
2018-05-21T13:56:47.590Z,2.05
2018-05-21T13:57:54.051Z,2.40
2018-05-21T13:59:00.450Z,1.80
2018-05-21T14:00:06.570Z,2.65
2018-05-21T14:01:12.873Z,1.90
2018-05-21T14:02:19.177Z,5.45
2018-05-21T14:03:25.214Z,2.10
2018-05-21T14:04:31.612Z,2.62
2018-05-21T14:05:37.970Z,2.33
2018-05-21T14:06:44.465Z,2.47
2018-05-21T14:07:50.757Z,2.45
2018-05-21T14:08:57.726Z,2.58
2018-05-21T14:10:03.951Z,2.37
2018-05-21T14:11:10.202Z,2.72
2018-05-21T14:12:16.537Z,2.58
2018-05-21T14:13:23.414Z,2.25
2018-05-21T14:14:32.021Z,3.50
2018-05-21T14:15:38.354Z,2.65
2018-05-21T14:16:45.733Z,2.53
2018-05-21T14:17:52.052Z,3.10
2018-05-21T14:18:58.303Z,2.30
2018-05-21T14:20:04.204Z,2.00
2018-05-21T14:21:10.528Z,2.60
2018-05-21T14:22:16.764Z,2.17
2018-05-21T14:23:23.016Z,2.45
2018-05-21T14:24:29.312Z,3.15
2018-05-21T14:25:35.834Z,3.37
2018-05-21T14:26:42.179Z,1.98
2018-05-21T14:27:48.452Z,3.03
2018-05-21T14:28:54.801Z,3.65
2018-05-21T14:30:01.091Z,2.50
2018-05-21T14:31:08.141Z,4.35
2018-05-21T14:32:14.517Z,2.30
2018-05-21T14:33:20.921Z,2.50
2018-05-21T14:34:27.217Z,2.28
2018-05-21T14:35:33.498Z,2.70
2018-05-21T14:36:39.773Z,2.08
2018-05-21T14:37:46.002Z,2.35
2018-05-21T14:38:52.282Z,3.90
2018-05-21T14:39:58.511Z,5.62
2018-05-21T14:41:04.897Z,1.90
2018-05-21T14:42:11.152Z,2.65
2018-05-21T14:43:17.118Z,2.92
2018-05-21T14:44:23.155Z,4.85
2018-05-21T14:45:29.509Z,2.78
2018-05-21T14:46:35.892Z,3.70
2018-05-21T14:47:42.256Z,2.22
2018-05-21T14:48:48.514Z,2.10
2018-05-21T14:49:54.817Z,2.90
2018-05-21T14:51:01.270Z,4.07